sensor_id;sensor_type;location;lat;lon;timestamp;pressure;altitude;pressure_sealevel;temperature;humidity
46583;BME280;32309;48.858;8.252;2023-09-19T00:00:40;99914.94;;;17.66;84.19
46583;BME280;32309;48.858;8.252;2023-09-19T00:02:41;99913.19;;;17.66;84.22
46583;BME280;32309;48.858;8.252;2023-09-19T00:04:47;99914.94;;;17.66;84.23
46583;BME280;32309;48.858;8.252;2023-09-19T00:06:49;99919.38;;;17.65;84.67
46583;BME280;32309;48.858;8.252;2023-09-19T00:08:54;99921.19;;;17.65;84.49
46583;BME280;32309;48.858;8.252;2023-09-19T00:10:56;99919.38;;;17.65;84.47
46583;BME280;32309;48.858;8.252;2023-09-19T00:13:08;99920.34;;;17.64;84.30
46583;BME280;32309;48.858;8.252;2023-09-19T00:15:13;99920.50;;;17.62;83.36
46583;BME280;32309;48.858;8.252;2023-09-19T00:17:20;99915.25;;;17.62;83.87
46583;BME280;32309;48.858;8.252;2023-09-19T00:19:26;99908.34;;;17.61;83.52
46583;BME280;32309;48.858;8.252;2023-09-19T00:21:27;99927.78;;;17.59;84.83
46583;BME280;32309;48.858;8.252;2023-09-19T00:23:33;99931.41;;;17.58;83.56
46583;BME280;32309;48.858;8.252;2023-09-19T00:26:01;99925.31;;;17.57;83.52
46583;BME280;32309;48.858;8.252;2023-09-19T00:28:04;99927.78;;;17.59;84.65
46583;BME280;32309;48.858;8.252;2023-09-19T00:30:14;99918.31;;;17.58;85.45
46583;BME280;32309;48.858;8.252;2023-09-19T00:32:21;99922.72;;;17.57;84.07
46583;BME280;32309;48.858;8.252;2023-09-19T00:34:24;99914.03;;;17.57;84.50
46583;BME280;32309;48.858;8.252;2023-09-19T00:36:24;99913.34;;;17.55;84.19
46583;BME280;32309;48.858;8.252;2023-09-19T00:38:29;99908.09;;;17.55;84.37
46583;BME280;32309;48.858;8.252;2023-09-19T00:40:37;99908.25;;;17.53;84.13
46583;BME280;32309;48.858;8.252;2023-09-19T00:42:40;99917.06;;;17.52;83.85
46583;BME280;32309;48.858;8.252;2023-09-19T00:44:54;99925.88;;;17.51;83.47
46583;BME280;32309;48.858;8.252;2023-09-19T00:47:11;99931.28;;;17.50;84.43
46583;BME280;32309;48.858;8.252;2023-09-19T00:49:18;99923.72;;;17.46;84.22
46583;BME280;32309;48.858;8.252;2023-09-19T00:51:22;99929.66;;;17.49;83.49
46583;BME280;32309;48.858;8.252;2023-09-19T00:53:35;99932.13;;;17.50;84.21
46583;BME280;32309;48.858;8.252;2023-09-19T00:55:45;99935.69;;;17.49;83.48
46583;BME280;32309;48.858;8.252;2023-09-19T00:57:56;99939.13;;;17.50;82.89
46583;BME280;32309;48.858;8.252;2023-09-19T00:59:59;99934.88;;;17.49;83.29
46583;BME280;32309;48.858;8.252;2023-09-19T01:02:15;99937.63;;;17.47;83.36
46583;BME280;32309;48.858;8.252;2023-09-19T01:04:36;99941.22;;;17.46;83.20
46583;BME280;32309;48.858;8.252;2023-09-19T01:06:40;99943.97;;;17.44;83.45
46583;BME280;32309;48.858;8.252;2023-09-19T01:08:41;99937.09;;;17.43;83.09
46583;BME280;32309;48.858;8.252;2023-09-19T01:10:51;99936.94;;;17.45;82.19
46583;BME280;32309;48.858;8.252;2023-09-19T01:18:39;99950.72;;;17.47;82.78
46583;BME280;32309;48.858;8.252;2023-09-19T01:21:20;99955.00;;;17.48;82.41
46583;BME280;32309;48.858;8.252;2023-09-19T01:32:28;99971.41;;;17.50;81.97
46583;BME280;32309;48.858;8.252;2023-09-19T01:37:04;99973.88;;;17.52;82.58
46583;BME280;32309;48.858;8.252;2023-09-19T01:39:12;99977.63;;;17.49;82.79
46583;BME280;32309;48.858;8.252;2023-09-19T01:41:26;99977.47;;;17.51;82.45
46583;BME280;32309;48.858;8.252;2023-09-19T01:44:01;99977.63;;;17.49;81.71
46583;BME280;32309;48.858;8.252;2023-09-19T01:54:45;99981.91;;;17.50;82.74
46583;BME280;32309;48.858;8.252;2023-09-19T01:57:40;99981.59;;;17.53;82.11
46583;BME280;32309;48.858;8.252;2023-09-19T02:00:29;99984.38;;;17.52;82.78
46583;BME280;32309;48.858;8.252;2023-09-19T02:08:50;99991.78;;;17.56;82.67
46583;BME280;32309;48.858;8.252;2023-09-19T02:11:11;99990.84;;;17.57;83.01
46583;BME280;32309;48.858;8.252;2023-09-19T02:13:21;99991.69;;;17.58;82.98
46583;BME280;32309;48.858;8.252;2023-09-19T03:29:03;100049.16;;;17.30;88.66
46583;BME280;32309;48.858;8.252;2023-09-19T03:31:06;100054.41;;;17.30;88.98
46583;BME280;32309;48.858;8.252;2023-09-19T03:33:14;100049.31;;;17.28;88.37
46583;BME280;32309;48.858;8.252;2023-09-19T03:35:20;100050.97;;;17.29;91.03
46583;BME280;32309;48.858;8.252;2023-09-19T03:37:23;100050.97;;;17.29;90.68
46583;BME280;32309;48.858;8.252;2023-09-19T03:39:26;100045.72;;;17.29;90.38
46583;BME280;32309;48.858;8.252;2023-09-19T03:41:33;100046.69;;;17.28;90.55
46583;BME280;32309;48.858;8.252;2023-09-19T03:43:36;100052.63;;;17.30;91.04
46583;BME280;32309;48.858;8.252;2023-09-19T03:45:36;100043.94;;;17.30;91.52
46583;BME280;32309;48.858;8.252;2023-09-19T03:47:40;100057.31;;;17.27;91.30
46583;BME280;32309;48.858;8.252;2023-09-19T03:49:53;100050.41;;;17.26;90.57
46583;BME280;32309;48.858;8.252;2023-09-19T03:52:05;100052.34;;;17.24;90.76
46583;BME280;32309;48.858;8.252;2023-09-19T03:54:15;100047.38;;;17.21;88.64
46583;BME280;32309;48.858;8.252;2023-09-19T03:56:20;100057.03;;;17.20;92.50
46583;BME280;32309;48.858;8.252;2023-09-19T03:58:21;100056.31;;;17.18;91.55
46583;BME280;32309;48.858;8.252;2023-09-19T04:00:30;100054.13;;;17.13;92.97
46583;BME280;32309;48.858;8.252;2023-09-19T04:02:43;100053.44;;;17.11;90.24
46583;BME280;32309;48.858;8.252;2023-09-19T04:04:46;100054.41;;;17.10;93.09
46583;BME280;32309;48.858;8.252;2023-09-19T04:07:03;100058.13;;;17.08;91.75
46583;BME280;32309;48.858;8.252;2023-09-19T04:09:04;100061.84;;;17.05;93.23
46583;BME280;32309;48.858;8.252;2023-09-19T04:11:07;100068.72;;;17.06;93.84
46583;BME280;32309;48.858;8.252;2023-09-19T04:13:07;100072.31;;;17.05;91.62
46583;BME280;32309;48.858;8.252;2023-09-19T04:15:08;100067.91;;;17.06;93.99
46583;BME280;32309;48.858;8.252;2023-09-19T04:17:13;100068.72;;;17.06;93.25
46583;BME280;32309;48.858;8.252;2023-09-19T04:19:23;100079.31;;;17.05;93.82
46583;BME280;32309;48.858;8.252;2023-09-19T04:21:23;100082.09;;;17.03;92.19
46583;BME280;32309;48.858;8.252;2023-09-19T04:23:33;100085.66;;;17.02;93.03
46583;BME280;32309;48.858;8.252;2023-09-19T04:25:40;100085.66;;;17.02;93.35
46583;BME280;32309;48.858;8.252;2023-09-19T04:27:40;100092.56;;;17.03;93.31
46583;BME280;32309;48.858;8.252;2023-09-19T04:29:44;100091.88;;;17.01;92.90
46583;BME280;32309;48.858;8.252;2023-09-19T04:31:44;100101.25;;;17.04;92.85
46583;BME280;32309;48.858;8.252;2023-09-19T04:33:46;100102.47;;;17.00;92.95
46583;BME280;32309;48.858;8.252;2023-09-19T04:35:48;100109.63;;;16.98;93.12
46583;BME280;32309;48.858;8.252;2023-09-19T04:37:53;100103.69;;;16.95;93.30
46583;BME280;32309;48.858;8.252;2023-09-19T04:39:54;100103.84;;;16.94;93.32
46583;BME280;32309;48.858;8.252;2023-09-19T04:41:55;100100.66;;;16.90;92.53
46583;BME280;32309;48.858;8.252;2023-09-19T04:43:55;100102.44;;;16.90;93.23
46583;BME280;32309;48.858;8.252;2023-09-19T04:45:58;100120.78;;;16.90;92.72
46583;BME280;32309;48.858;8.252;2023-09-19T04:48:00;100109.56;;;16.88;92.51
46583;BME280;32309;48.858;8.252;2023-09-19T04:52:44;100109.84;;;16.85;92.67
46583;BME280;32309;48.858;8.252;2023-09-19T04:54:45;100116.75;;;16.86;92.11
46583;BME280;32309;48.858;8.252;2023-09-19T04:56:55;100124.88;;;16.83;92.24
46583;BME280;32309;48.858;8.252;2023-09-19T04:58:55;100128.31;;;16.83;92.80
46583;BME280;32309;48.858;8.252;2023-09-19T05:01:08;100133.66;;;16.82;92.31
46583;BME280;32309;48.858;8.252;2023-09-19T05:06:03;100138.34;;;16.78;91.85
46583;BME280;32309;48.858;8.252;2023-09-19T05:08:05;100135.84;;;16.76;91.77
46583;BME280;32309;48.858;8.252;2023-09-19T05:10:06;100139.44;;;16.75;91.38
46583;BME280;32309;48.858;8.252;2023-09-19T05:12:14;100140.50;;;16.73;91.83
46583;BME280;32309;48.858;8.252;2023-09-19T05:14:19;100152.91;;;16.71;92.08
46583;BME280;32309;48.858;8.252;2023-09-19T05:16:26;100148.78;;;16.68;91.80
46583;BME280;32309;48.858;8.252;2023-09-19T05:18:51;100149.59;;;16.69;90.75
46583;BME280;32309;48.858;8.252;2023-09-19T05:20:56;100163.75;;;16.66;91.15
46583;BME280;32309;48.858;8.252;2023-09-19T05:23:05;100171.63;;;16.66;91.91
46583;BME280;32309;48.858;8.252;2023-09-19T05:25:09;100164.72;;;16.65;91.57
46583;BME280;32309;48.858;8.252;2023-09-19T05:27:13;100164.72;;;16.65;91.56
46583;BME280;32309;48.858;8.252;2023-09-19T05:29:17;100169.13;;;16.64;92.03
46583;BME280;32309;48.858;8.252;2023-09-19T05:31:20;100172.56;;;16.65;91.70
46583;BME280;32309;48.858;8.252;2023-09-19T05:33:28;100174.50;;;16.63;90.56
46583;BME280;32309;48.858;8.252;2023-09-19T05:35:31;100175.19;;;16.65;91.83
46583;BME280;32309;48.858;8.252;2023-09-19T05:37:31;100176.97;;;16.64;91.97
46583;BME280;32309;48.858;8.252;2023-09-19T05:39:41;100177.81;;;16.65;91.11
46583;BME280;32309;48.858;8.252;2023-09-19T05:41:42;100180.28;;;16.67;91.50
46583;BME280;32309;48.858;8.252;2023-09-19T05:43:45;100179.31;;;16.68;92.60
46583;BME280;32309;48.858;8.252;2023-09-19T05:45:50;100187.03;;;16.69;92.24
46583;BME280;32309;48.858;8.252;2023-09-19T05:47:54;100186.22;;;16.69;91.99
46583;BME280;32309;48.858;8.252;2023-09-19T05:50:05;100187.63;;;16.73;91.74
46583;BME280;32309;48.858;8.252;2023-09-19T05:52:09;100189.97;;;16.76;90.95
46583;BME280;32309;48.858;8.252;2023-09-19T05:54:09;100197.00;;;16.75;91.44
46583;BME280;32309;48.858;8.252;2023-09-19T05:56:11;100193.44;;;16.76;90.97
46583;BME280;32309;48.858;8.252;2023-09-19T05:58:13;100198.66;;;16.76;90.41
46583;BME280;32309;48.858;8.252;2023-09-19T06:00:14;100197.81;;;16.76;90.47
46583;BME280;32309;48.858;8.252;2023-09-19T06:02:14;100189.97;;;16.76;90.94
46583;BME280;32309;48.858;8.252;2023-09-19T06:04:15;100200.34;;;16.77;90.90
46583;BME280;32309;48.858;8.252;2023-09-19T06:06:15;100200.06;;;16.80;90.66
46583;BME280;32309;48.858;8.252;2023-09-19T06:08:16;100200.78;;;16.83;91.05
46583;BME280;32309;48.858;8.252;2023-09-19T06:10:16;100213.72;;;16.84;90.89
46583;BME280;32309;48.858;8.252;2023-09-19T06:12:17;100214.69;;;16.83;90.47
46583;BME280;32309;48.858;8.252;2023-09-19T06:14:18;100221.56;;;16.84;90.26
46583;BME280;32309;48.858;8.252;2023-09-19T06:16:20;100217.97;;;16.85;90.82
46583;BME280;32309;48.858;8.252;2023-09-19T06:18:21;100222.25;;;16.86;90.29
46583;BME280;32309;48.858;8.252;2023-09-19T06:20:21;100224.06;;;16.86;90.63
46583;BME280;32309;48.858;8.252;2023-09-19T06:22:33;100226.69;;;16.86;90.00
46583;BME280;32309;48.858;8.252;2023-09-19T06:24:34;100230.97;;;16.87;90.26
46583;BME280;32309;48.858;8.252;2023-09-19T06:26:35;100224.88;;;16.86;90.34
46583;BME280;32309;48.858;8.252;2023-09-19T06:28:36;100225.72;;;16.87;90.34
46583;BME280;32309;48.858;8.252;2023-09-19T06:30:38;100219.41;;;16.89;90.06
46583;BME280;32309;48.858;8.252;2023-09-19T06:32:44;100225.59;;;16.88;89.76
46583;BME280;32309;48.858;8.252;2023-09-19T06:34:44;100224.75;;;16.88;89.97
46583;BME280;32309;48.858;8.252;2023-09-19T06:36:46;100218.56;;;16.89;89.83
46583;BME280;32309;48.858;8.252;2023-09-19T06:38:48;100218.44;;;16.90;89.43
46583;BME280;32309;48.858;8.252;2023-09-19T06:40:51;100216.69;;;16.91;89.24
46583;BME280;32309;48.858;8.252;2023-09-19T06:42:54;100223.56;;;16.92;88.97
46583;BME280;32309;48.858;8.252;2023-09-19T06:44:56;100224.25;;;16.94;88.76
46583;BME280;32309;48.858;8.252;2023-09-19T06:46:56;100225.06;;;16.94;88.89
46583;BME280;32309;48.858;8.252;2023-09-19T06:48:56;100239.00;;;16.95;88.81
46583;BME280;32309;48.858;8.252;2023-09-19T06:53:36;100228.97;;;17.00;88.47
46583;BME280;32309;48.858;8.252;2023-09-19T06:55:36;100232.41;;;17.01;89.11
46583;BME280;32309;48.858;8.252;2023-09-19T06:57:49;100234.91;;;17.02;89.27
46583;BME280;32309;48.858;8.252;2023-09-19T06:59:49;100229.28;;;17.07;89.61
46583;BME280;32309;48.858;8.252;2023-09-19T07:01:50;100234.81;;;17.13;88.95
46583;BME280;32309;48.858;8.252;2023-09-19T07:03:51;100237.03;;;17.18;89.36
46583;BME280;32309;48.858;8.252;2023-09-19T07:05:53;100239.84;;;17.26;89.70
46583;BME280;32309;48.858;8.252;2023-09-19T07:07:55;100248.94;;;17.32;89.48
46583;BME280;32309;48.858;8.252;2023-09-19T07:09:56;100238.09;;;17.37;89.28
46583;BME280;32309;48.858;8.252;2023-09-19T07:11:56;100241.00;;;17.43;88.24
46583;BME280;32309;48.858;8.252;2023-09-19T07:13:59;100237.00;;;17.49;89.57
46583;BME280;32309;48.858;8.252;2023-09-19T07:16:01;100242.53;;;17.56;89.87
46583;BME280;32309;48.858;8.252;2023-09-19T07:18:02;100240.34;;;17.61;89.35
46583;BME280;32309;48.858;8.252;2023-09-19T07:20:02;100237.19;;;17.67;89.77
46583;BME280;32309;48.858;8.252;2023-09-19T07:22:07;100233.19;;;17.73;89.46
46583;BME280;32309;48.858;8.252;2023-09-19T07:24:18;100235.53;;;17.76;89.47
46583;BME280;32309;48.858;8.252;2023-09-19T07:26:20;100237.91;;;17.79;89.70
46583;BME280;32309;48.858;8.252;2023-09-19T07:28:21;100238.44;;;17.83;88.91
46583;BME280;32309;48.858;8.252;2023-09-19T07:30:30;100239.00;;;17.86;88.47
46583;BME280;32309;48.858;8.252;2023-09-19T07:32:30;100242.44;;;17.87;87.72
46583;BME280;32309;48.858;8.252;2023-09-19T07:34:31;100250.88;;;17.90;87.29
46583;BME280;32309;48.858;8.252;2023-09-19T07:36:31;100249.66;;;17.94;86.53
46583;BME280;32309;48.858;8.252;2023-09-19T07:38:32;100247.47;;;18.00;85.91
46583;BME280;32309;48.858;8.252;2023-09-19T07:40:35;100248.69;;;18.05;85.70
46583;BME280;32309;48.858;8.252;2023-09-19T07:42:36;100257.28;;;18.07;84.62
46583;BME280;32309;48.858;8.252;2023-09-19T07:45:00;100261.28;;;18.11;84.72
46583;BME280;32309;48.858;8.252;2023-09-19T07:47:02;100262.94;;;18.12;83.48
46583;BME280;32309;48.858;8.252;2023-09-19T07:49:05;100261.41;;;18.10;82.46
46583;BME280;32309;48.858;8.252;2023-09-19T07:51:06;100265.69;;;18.11;81.70
46583;BME280;32309;48.858;8.252;2023-09-19T07:56:08;100269.97;;;18.12;80.92
46583;BME280;32309;48.858;8.252;2023-09-19T07:58:09;100272.31;;;18.15;81.16
46583;BME280;32309;48.858;8.252;2023-09-19T08:00:10;100278.25;;;18.17;81.38
46583;BME280;32309;48.858;8.252;2023-09-19T08:02:10;100278.41;;;18.25;82.19
46583;BME280;32309;48.858;8.252;2023-09-19T08:04:15;100282.41;;;18.29;82.36
46583;BME280;32309;48.858;8.252;2023-09-19T08:06:15;100284.50;;;18.36;82.71
46583;BME280;32309;48.858;8.252;2023-09-19T08:08:16;100286.81;;;18.39;81.46
46583;BME280;32309;48.858;8.252;2023-09-19T08:10:17;100287.78;;;18.38;81.42
46583;BME280;32309;48.858;8.252;2023-09-19T08:12:19;100285.88;;;18.40;82.05
46583;BME280;32309;48.858;8.252;2023-09-19T08:14:24;100286.81;;;18.39;82.13
46583;BME280;32309;48.858;8.252;2023-09-19T08:16:26;100286.97;;;18.37;81.71
46583;BME280;32309;48.858;8.252;2023-09-19T08:18:26;100286.13;;;18.37;82.26
46583;BME280;32309;48.858;8.252;2023-09-19T08:20:29;100289.72;;;18.36;82.33
46583;BME280;32309;48.858;8.252;2023-09-19T08:22:31;100294.00;;;18.37;81.91
46583;BME280;32309;48.858;8.252;2023-09-19T08:24:32;100294.69;;;18.39;80.32
46583;BME280;32309;48.858;8.252;2023-09-19T08:26:33;100295.13;;;18.44;80.75
46583;BME280;32309;48.858;8.252;2023-09-19T08:28:34;100298.41;;;18.46;80.00
46583;BME280;32309;48.858;8.252;2023-09-19T08:30:35;100298.97;;;18.50;79.99
46583;BME280;32309;48.858;8.252;2023-09-19T08:32:37;100295.53;;;18.49;80.48
46583;BME280;32309;48.858;8.252;2023-09-19T08:34:37;100290.13;;;18.51;80.06
46583;BME280;32309;48.858;8.252;2023-09-19T08:36:38;100294.28;;;18.53;79.80
46583;BME280;32309;48.858;8.252;2023-09-19T08:38:39;100298.00;;;18.51;80.19
46583;BME280;32309;48.858;8.252;2023-09-19T08:40:39;100304.22;;;18.50;79.83
46583;BME280;32309;48.858;8.252;2023-09-19T08:42:51;100301.31;;;18.53;78.92
46583;BME280;32309;48.858;8.252;2023-09-19T08:44:54;100298.69;;;18.62;79.94
46583;BME280;32309;48.858;8.252;2023-09-19T08:46:56;100297.00;;;18.71;78.81
46583;BME280;32309;48.858;8.252;2023-09-19T08:49:10;100310.69;;;18.85;77.27
46583;BME280;32309;48.858;8.252;2023-09-19T08:51:26;100295.22;;;18.91;77.26
46583;BME280;32309;48.858;8.252;2023-09-19T08:53:41;100308.31;;;19.01;76.16
46583;BME280;32309;48.858;8.252;2023-09-19T08:55:49;100303.06;;;19.01;74.17
46583;BME280;32309;48.858;8.252;2023-09-19T08:57:57;100307.19;;;19.04;73.13
46583;BME280;32309;48.858;8.252;2023-09-19T09:00:02;100300.13;;;19.14;74.03
46583;BME280;32309;48.858;8.252;2023-09-19T09:02:12;100308.09;;;19.22;73.90
46583;BME280;32309;48.858;8.252;2023-09-19T09:04:14;100301.88;;;19.23;71.05
46583;BME280;32309;48.858;8.252;2023-09-19T09:06:14;100302.03;;;19.22;72.77
46583;BME280;32309;48.858;8.252;2023-09-19T09:08:17;100309.38;;;19.18;72.13
46583;BME280;32309;48.858;8.252;2023-09-19T09:10:20;100301.09;;;19.13;71.90
46583;BME280;32309;48.858;8.252;2023-09-19T09:12:24;100313.16;;;19.06;70.63
46583;BME280;32309;48.858;8.252;2023-09-19T09:14:25;100303.59;;;19.05;71.92
46583;BME280;32309;48.858;8.252;2023-09-19T09:16:26;100302.91;;;19.03;71.51
46583;BME280;32309;48.858;8.252;2023-09-19T09:18:26;100304.03;;;19.00;72.43
46583;BME280;32309;48.858;8.252;2023-09-19T09:20:29;100314.81;;;18.97;71.02
46583;BME280;32309;48.858;8.252;2023-09-19T09:22:30;100304.31;;;18.97;71.02
46583;BME280;32309;48.858;8.252;2023-09-19T09:24:32;100294.63;;;18.98;72.18
46583;BME280;32309;48.858;8.252;2023-09-19T09:26:40;100297.53;;;18.94;72.10
46583;BME280;32309;48.858;8.252;2023-09-19T09:28:46;100299.47;;;18.92;69.86
46583;BME280;32309;48.858;8.252;2023-09-19T09:30:50;100296.03;;;18.92;70.40
46583;BME280;32309;48.858;8.252;2023-09-19T09:32:54;100308.34;;;18.91;66.33
46583;BME280;32309;48.858;8.252;2023-09-19T09:35:08;100299.47;;;19.02;64.90
46583;BME280;32309;48.858;8.252;2023-09-19T09:37:14;100298.16;;;19.16;67.09
46583;BME280;32309;48.858;8.252;2023-09-19T09:39:29;100298.97;;;19.26;64.20
46583;BME280;32309;48.858;8.252;2023-09-19T09:41:37;100291.88;;;19.37;62.92
46583;BME280;32309;48.858;8.252;2023-09-19T09:43:39;100290.19;;;19.45;63.37
46583;BME280;32309;48.858;8.252;2023-09-19T09:45:41;100283.09;;;19.56;63.96
46583;BME280;32309;48.858;8.252;2023-09-19T09:47:48;100288.66;;;19.71;66.54
46583;BME280;32309;48.858;8.252;2023-09-19T09:49:55;100281.13;;;19.86;64.05
46583;BME280;32309;48.858;8.252;2023-09-19T09:52:07;100288.97;;;19.95;61.46
46583;BME280;32309;48.858;8.252;2023-09-19T09:54:17;100289.19;;;20.02;64.02
46583;BME280;32309;48.858;8.252;2023-09-19T09:56:22;100288.28;;;20.11;63.55
46583;BME280;32309;48.858;8.252;2023-09-19T09:58:22;100292.13;;;20.17;60.58
46583;BME280;32309;48.858;8.252;2023-09-19T10:00:28;100285.94;;;20.26;62.10
46583;BME280;32309;48.858;8.252;2023-09-19T10:02:42;100295.03;;;20.32;60.27
46583;BME280;32309;48.858;8.252;2023-09-19T10:04:45;100286.19;;;20.33;60.33
46583;BME280;32309;48.858;8.252;2023-09-19T10:06:51;100287.53;;;20.37;59.40
46583;BME280;32309;48.858;8.252;2023-09-19T10:09:00;100294.00;;;20.43;60.71
46583;BME280;32309;48.858;8.252;2023-09-19T10:11:17;100296.47;;;20.44;58.44
46583;BME280;32309;48.858;8.252;2023-09-19T10:13:20;100299.50;;;20.50;58.18
46583;BME280;32309;48.858;8.252;2023-09-19T10:15:26;100286.97;;;20.52;60.01
46583;BME280;32309;48.858;8.252;2023-09-19T10:17:30;100292.63;;;20.57;60.82
46583;BME280;32309;48.858;8.252;2023-09-19T10:21:57;100301.59;;;20.46;61.30
46583;BME280;32309;48.858;8.252;2023-09-19T10:23:59;100303.69;;;20.42;58.08
46583;BME280;32309;48.858;8.252;2023-09-19T10:26:02;100301.44;;;20.29;58.91
46583;BME280;32309;48.858;8.252;2023-09-19T10:28:05;100302.88;;;20.24;60.06
46583;BME280;32309;48.858;8.252;2023-09-19T10:30:10;100295.88;;;20.15;58.02
46583;BME280;32309;48.858;8.252;2023-09-19T10:32:12;100302.56;;;20.09;58.08
46583;BME280;32309;48.858;8.252;2023-09-19T10:34:18;100305.88;;;20.11;59.98
46583;BME280;32309;48.858;8.252;2023-09-19T10:36:21;100293.41;;;20.13;58.04
46583;BME280;32309;48.858;8.252;2023-09-19T10:38:26;100289.09;;;20.12;58.87
46583;BME280;32309;48.858;8.252;2023-09-19T10:40:28;100286.31;;;20.14;58.42
46583;BME280;32309;48.858;8.252;2023-09-19T10:42:31;100288.97;;;20.14;60.38
46583;BME280;32309;48.858;8.252;2023-09-19T10:44:37;100293.84;;;20.08;58.36
46583;BME280;32309;48.858;8.252;2023-09-19T10:46:42;100290.81;;;20.03;58.57
46583;BME280;32309;48.858;8.252;2023-09-19T10:48:43;100293.84;;;20.08;59.86
46583;BME280;32309;48.858;8.252;2023-09-19T10:50:51;100286.16;;;20.15;60.46
46583;BME280;32309;48.858;8.252;2023-09-19T10:53:00;100285.25;;;20.24;60.64
46583;BME280;32309;48.858;8.252;2023-09-19T10:55:04;100286.47;;;20.30;58.56
46583;BME280;32309;48.858;8.252;2023-09-19T10:57:06;100287.69;;;20.36;57.91
46583;BME280;32309;48.858;8.252;2023-09-19T10:59:15;100291.88;;;20.47;57.81
46583;BME280;32309;48.858;8.252;2023-09-19T11:01:20;100295.94;;;20.59;59.30
46583;BME280;32309;48.858;8.252;2023-09-19T11:03:21;100284.13;;;20.63;58.76
46583;BME280;32309;48.858;8.252;2023-09-19T11:05:43;100289.97;;;20.57;57.24
46583;BME280;32309;48.858;8.252;2023-09-19T11:07:59;100282.91;;;20.57;59.65
46583;BME280;32309;48.858;8.252;2023-09-19T11:10:04;100279.63;;;20.55;57.16
46583;BME280;32309;48.858;8.252;2023-09-19T11:12:04;100285.25;;;20.60;58.82
46583;BME280;32309;48.858;8.252;2023-09-19T11:14:13;100279.66;;;20.64;57.87
46583;BME280;32309;48.858;8.252;2023-09-19T11:16:17;100285.47;;;20.67;59.81
46583;BME280;32309;48.858;8.252;2023-09-19T11:24:27;100281.72;;;20.52;57.14
46583;BME280;32309;48.858;8.252;2023-09-19T11:27:08;100272.47;;;20.48;59.12
46583;BME280;32309;48.858;8.252;2023-09-19T11:29:27;100274.13;;;20.49;59.35
46583;BME280;32309;48.858;8.252;2023-09-19T11:31:42;100265.25;;;20.50;59.03
46583;BME280;32309;48.858;8.252;2023-09-19T11:33:48;100269.25;;;20.54;57.38
46583;BME280;32309;48.858;8.252;2023-09-19T11:36:39;100254.31;;;20.62;57.37
46583;BME280;32309;48.858;8.252;2023-09-19T11:39:02;100261.06;;;20.65;59.06
46583;BME280;32309;48.858;8.252;2023-09-19T11:43:28;100249.97;;;20.71;57.89
46583;BME280;32309;48.858;8.252;2023-09-19T11:47:46;100248.88;;;20.82;56.70
46583;BME280;32309;48.858;8.252;2023-09-19T11:49:48;100246.91;;;20.84;56.72
46583;BME280;32309;48.858;8.252;2023-09-19T11:51:48;100240.34;;;20.88;57.02
46583;BME280;32309;48.858;8.252;2023-09-19T11:53:52;100238.38;;;20.90;57.25
46583;BME280;32309;48.858;8.252;2023-09-19T11:55:53;100233.63;;;20.94;55.68
46583;BME280;32309;48.858;8.252;2023-09-19T11:57:54;100233.97;;;20.99;55.92
46583;BME280;32309;48.858;8.252;2023-09-19T11:59:55;100232.38;;;21.06;54.13
46583;BME280;32309;48.858;8.252;2023-09-19T12:02:06;100236.50;;;21.09;55.08
46583;BME280;32309;48.858;8.252;2023-09-19T12:04:08;100222.84;;;21.14;53.87
46583;BME280;32309;48.858;8.252;2023-09-19T12:06:11;100225.16;;;21.17;53.02
46583;BME280;32309;48.858;8.252;2023-09-19T12:08:14;100219.59;;;21.20;54.20
46583;BME280;32309;48.858;8.252;2023-09-19T12:10:16;100226.03;;;21.25;54.42
46583;BME280;32309;48.858;8.252;2023-09-19T12:12:22;100217.66;;;21.30;52.85
46583;BME280;32309;48.858;8.252;2023-09-19T12:14:23;100220.31;;;21.38;53.40
46583;BME280;32309;48.858;8.252;2023-09-19T12:16:26;100215.06;;;21.47;54.81
46583;BME280;32309;48.858;8.252;2023-09-19T12:18:30;100217.22;;;21.51;53.46
46583;BME280;32309;48.858;8.252;2023-09-19T12:20:43;100212.97;;;21.58;53.26
46583;BME280;32309;48.858;8.252;2023-09-19T12:22:47;100212.63;;;21.61;53.11
46583;BME280;32309;48.858;8.252;2023-09-19T12:24:48;100203.28;;;21.67;52.08
46583;BME280;32309;48.858;8.252;2023-09-19T12:26:48;100200.13;;;21.64;51.91
46583;BME280;32309;48.858;8.252;2023-09-19T12:28:52;100206.72;;;21.59;52.75
46583;BME280;32309;48.858;8.252;2023-09-19T12:30:54;100203.72;;;21.54;52.93
46583;BME280;32309;48.858;8.252;2023-09-19T12:32:57;100200.56;;;21.51;52.85
46583;BME280;32309;48.858;8.252;2023-09-19T12:34:59;100195.81;;;21.54;53.05
46583;BME280;32309;48.858;8.252;2023-09-19T12:37:15;100197.81;;;21.60;52.12
46583;BME280;32309;48.858;8.252;2023-09-19T12:39:23;100191.72;;;21.68;54.25
46583;BME280;32309;48.858;8.252;2023-09-19T12:41:29;100181.84;;;21.78;54.10
46583;BME280;32309;48.858;8.252;2023-09-19T12:43:30;100194.22;;;21.86;52.62
46583;BME280;32309;48.858;8.252;2023-09-19T12:45:36;100181.53;;;21.90;53.77
46583;BME280;32309;48.858;8.252;2023-09-19T12:47:41;100176.88;;;21.92;51.79
46583;BME280;32309;48.858;8.252;2023-09-19T12:50:17;100177.56;;;22.02;50.44
46583;BME280;32309;48.858;8.252;2023-09-19T12:52:18;100179.38;;;22.10;52.56
46583;BME280;32309;48.858;8.252;2023-09-19T12:54:19;100172.75;;;22.14;52.02
46583;BME280;32309;48.858;8.252;2023-09-19T12:56:20;100179.53;;;22.17;48.80
46583;BME280;32309;48.858;8.252;2023-09-19T12:58:23;100177.56;;;22.19;50.74
46583;BME280;32309;48.858;8.252;2023-09-19T13:00:33;100178.38;;;22.19;49.50
46583;BME280;32309;48.858;8.252;2023-09-19T13:05:20;100171.78;;;22.32;51.29
46583;BME280;32309;48.858;8.252;2023-09-19T13:10:02;100169.16;;;22.40;49.40
46583;BME280;32309;48.858;8.252;2023-09-19T13:12:05;100163.34;;;22.53;52.93
46583;BME280;32309;48.858;8.252;2023-09-19T13:14:29;100167.25;;;22.65;50.09